South Point, Ohio
Current Conditions -  °F | °C
As of 5:51 AM on Thursday 18 Dec 2014 (Local Time) from KHTS Reporting Station
Overcast Overcast  
Wind Chill: 23°   Ceiling: 2200
Heat Index: 29°   Visibility: 10mi
Dew Point: 22°   Wind: 6mph
Humidity: 75%   Direction: 10°N
Pressure: 30.24"   Gusts: NA
Location:  38.42°N, 82.59°W
Report Text: KHTS 181051Z 01005KT 10SM OVC022 M02/M06 A3024 RMK AO2 SLP247 T10171056
Loading
Personal Weather Stations






























Interactive Weather Map New forecast layout! Learn more

10-Day Weather Forecast

Advertisements
Track Severe Weather on mobile